sensor_id;sensor_type;location;lat;lon;timestamp;P1;durP1;ratioP1;P2;durP2;ratioP2
32611;SDS011;19030;49.478;8.986;2022-12-07T00:00:41;14.45;;;8.35;;
32611;SDS011;19030;49.478;8.986;2022-12-07T00:02:41;14.48;;;7.57;;
32611;SDS011;19030;49.478;8.986;2022-12-07T00:04:42;12.30;;;7.20;;
32611;SDS011;19030;49.478;8.986;2022-12-07T00:06:44;16.00;;;7.95;;
32611;SDS011;19030;49.478;8.986;2022-12-07T00:08:46;15.48;;;7.95;;
32611;SDS011;19030;49.478;8.986;2022-12-07T00:10:47;16.17;;;8.07;;
32611;SDS011;19030;49.478;8.986;2022-12-07T00:12:47;14.38;;;8.35;;
32611;SDS011;19030;49.478;8.986;2022-12-07T00:14:48;17.75;;;9.20;;
32611;SDS011;19030;49.478;8.986;2022-12-07T00:16:49;14.75;;;8.52;;
32611;SDS011;19030;49.478;8.986;2022-12-07T00:18:51;17.27;;;8.63;;
32611;SDS011;19030;49.478;8.986;2022-12-07T00:20:51;15.15;;;8.77;;
32611;SDS011;19030;49.478;8.986;2022-12-07T00:22:52;13.95;;;8.25;;
32611;SDS011;19030;49.478;8.986;2022-12-07T00:24:52;18.58;;;9.05;;
32611;SDS011;19030;49.478;8.986;2022-12-07T00:26:53;12.73;;;7.68;;
32611;SDS011;19030;49.478;8.986;2022-12-07T00:28:54;15.65;;;8.68;;
32611;SDS011;19030;49.478;8.986;2022-12-07T00:31:00;13.63;;;8.20;;
32611;SDS011;19030;49.478;8.986;2022-12-07T00:33:02;15.60;;;8.27;;
32611;SDS011;19030;49.478;8.986;2022-12-07T00:35:03;13.95;;;8.00;;
32611;SDS011;19030;49.478;8.986;2022-12-07T00:37:04;14.90;;;8.13;;
32611;SDS011;19030;49.478;8.986;2022-12-07T00:39:04;15.18;;;8.15;;
32611;SDS011;19030;49.478;8.986;2022-12-07T00:41:06;15.98;;;9.10;;
32611;SDS011;19030;49.478;8.986;2022-12-07T00:45:12;15.52;;;8.15;;
32611;SDS011;19030;49.478;8.986;2022-12-07T00:47:12;13.93;;;7.88;;
32611;SDS011;19030;49.478;8.986;2022-12-07T00:49:13;13.52;;;7.25;;
32611;SDS011;19030;49.478;8.986;2022-12-07T00:51:14;13.60;;;7.97;;
32611;SDS011;19030;49.478;8.986;2022-12-07T00:53:16;16.40;;;7.95;;
32611;SDS011;19030;49.478;8.986;2022-12-07T00:55:17;18.13;;;8.40;;
32611;SDS011;19030;49.478;8.986;2022-12-07T00:57:17;13.98;;;8.40;;
32611;SDS011;19030;49.478;8.986;2022-12-07T00:59:18;14.77;;;8.57;;
32611;SDS011;19030;49.478;8.986;2022-12-07T01:01:18;13.50;;;8.20;;
32611;SDS011;19030;49.478;8.986;2022-12-07T01:03:19;15.30;;;8.48;;
32611;SDS011;19030;49.478;8.986;2022-12-07T01:05:20;13.40;;;8.30;;
32611;SDS011;19030;49.478;8.986;2022-12-07T01:07:21;13.27;;;7.78;;
32611;SDS011;19030;49.478;8.986;2022-12-07T01:09:21;15.40;;;9.05;;
32611;SDS011;19030;49.478;8.986;2022-12-07T01:11:23;13.40;;;8.13;;
32611;SDS011;19030;49.478;8.986;2022-12-07T01:13:25;13.50;;;8.48;;
32611;SDS011;19030;49.478;8.986;2022-12-07T01:15:28;15.60;;;8.95;;
32611;SDS011;19030;49.478;8.986;2022-12-07T01:17:28;16.33;;;8.88;;
32611;SDS011;19030;49.478;8.986;2022-12-07T01:19:29;15.60;;;8.75;;
32611;SDS011;19030;49.478;8.986;2022-12-07T01:21:33;14.35;;;7.75;;
32611;SDS011;19030;49.478;8.986;2022-12-07T01:23:36;14.40;;;8.48;;
32611;SDS011;19030;49.478;8.986;2022-12-07T01:25:37;14.40;;;8.48;;
32611;SDS011;19030;49.478;8.986;2022-12-07T01:27:37;13.75;;;8.15;;
32611;SDS011;19030;49.478;8.986;2022-12-07T01:29:38;12.75;;;8.02;;
32611;SDS011;19030;49.478;8.986;2022-12-07T01:31:38;14.68;;;8.10;;
32611;SDS011;19030;49.478;8.986;2022-12-07T01:33:39;15.20;;;9.32;;
32611;SDS011;19030;49.478;8.986;2022-12-07T01:35:40;15.23;;;8.82;;
32611;SDS011;19030;49.478;8.986;2022-12-07T01:37:41;13.90;;;8.80;;
32611;SDS011;19030;49.478;8.986;2022-12-07T01:39:41;15.40;;;9.18;;
32611;SDS011;19030;49.478;8.986;2022-12-07T01:41:42;16.00;;;8.10;;
32611;SDS011;19030;49.478;8.986;2022-12-07T01:46:10;13.50;;;8.02;;
32611;SDS011;19030;49.478;8.986;2022-12-07T01:48:12;14.20;;;8.30;;
32611;SDS011;19030;49.478;8.986;2022-12-07T01:50:16;14.95;;;8.15;;
32611;SDS011;19030;49.478;8.986;2022-12-07T01:52:27;12.20;;;7.80;;
32611;SDS011;19030;49.478;8.986;2022-12-07T01:54:30;18.05;;;8.32;;
32611;SDS011;19030;49.478;8.986;2022-12-07T01:56:32;13.80;;;8.32;;
32611;SDS011;19030;49.478;8.986;2022-12-07T01:58:33;16.52;;;7.85;;
32611;SDS011;19030;49.478;8.986;2022-12-07T02:00:34;15.38;;;8.52;;
32611;SDS011;19030;49.478;8.986;2022-12-07T02:02:55;16.08;;;9.18;;
32611;SDS011;19030;49.478;8.986;2022-12-07T02:05:03;15.07;;;8.38;;
32611;SDS011;19030;49.478;8.986;2022-12-07T02:07:05;14.90;;;8.73;;
32611;SDS011;19030;49.478;8.986;2022-12-07T02:09:06;13.73;;;8.60;;
32611;SDS011;19030;49.478;8.986;2022-12-07T02:11:07;14.00;;;8.95;;
32611;SDS011;19030;49.478;8.986;2022-12-07T02:13:10;15.98;;;9.00;;
32611;SDS011;19030;49.478;8.986;2022-12-07T02:15:13;14.57;;;8.55;;
32611;SDS011;19030;49.478;8.986;2022-12-07T02:17:16;14.57;;;8.32;;
32611;SDS011;19030;49.478;8.986;2022-12-07T02:23:59;13.82;;;8.35;;
32611;SDS011;19030;49.478;8.986;2022-12-07T02:28:33;13.80;;;7.50;;
32611;SDS011;19030;49.478;8.986;2022-12-07T02:30:38;15.73;;;8.65;;
32611;SDS011;19030;49.478;8.986;2022-12-07T02:32:53;15.50;;;8.30;;
32611;SDS011;19030;49.478;8.986;2022-12-07T02:35:15;15.00;;;8.52;;
32611;SDS011;19030;49.478;8.986;2022-12-07T02:40:13;16.15;;;8.65;;
32611;SDS011;19030;49.478;8.986;2022-12-07T02:42:16;14.23;;;9.00;;
32611;SDS011;19030;49.478;8.986;2022-12-07T02:44:23;15.10;;;9.90;;
32611;SDS011;19030;49.478;8.986;2022-12-07T02:46:28;18.40;;;9.95;;
32611;SDS011;19030;49.478;8.986;2022-12-07T02:48:32;16.10;;;9.20;;
32611;SDS011;19030;49.478;8.986;2022-12-07T02:50:33;17.40;;;9.45;;
32611;SDS011;19030;49.478;8.986;2022-12-07T02:52:34;17.75;;;10.13;;
32611;SDS011;19030;49.478;8.986;2022-12-07T02:54:34;16.05;;;9.60;;
32611;SDS011;19030;49.478;8.986;2022-12-07T03:01:45;14.77;;;9.07;;
32611;SDS011;19030;49.478;8.986;2022-12-07T03:03:28;17.85;;;8.75;;
32611;SDS011;19030;49.478;8.986;2022-12-07T03:05:37;15.75;;;9.07;;
32611;SDS011;19030;49.478;8.986;2022-12-07T03:08:00;16.92;;;9.07;;
32611;SDS011;19030;49.478;8.986;2022-12-07T03:15:00;16.67;;;9.60;;
32611;SDS011;19030;49.478;8.986;2022-12-07T03:17:16;17.23;;;10.30;;
32611;SDS011;19030;49.478;8.986;2022-12-07T03:19:20;20.23;;;10.65;;
32611;SDS011;19030;49.478;8.986;2022-12-07T03:21:31;19.85;;;10.82;;
32611;SDS011;19030;49.478;8.986;2022-12-07T03:23:35;17.27;;;10.13;;
32611;SDS011;19030;49.478;8.986;2022-12-07T03:25:40;18.70;;;10.65;;
32611;SDS011;19030;49.478;8.986;2022-12-07T03:27:54;18.40;;;9.68;;
32611;SDS011;19030;49.478;8.986;2022-12-07T03:30:07;15.93;;;9.57;;
32611;SDS011;19030;49.478;8.986;2022-12-07T03:32:14;16.88;;;9.40;;
32611;SDS011;19030;49.478;8.986;2022-12-07T03:34:30;16.98;;;8.95;;
32611;SDS011;19030;49.478;8.986;2022-12-07T03:39:06;16.65;;;9.57;;
32611;SDS011;19030;49.478;8.986;2022-12-07T03:41:32;19.60;;;9.30;;
32611;SDS011;19030;49.478;8.986;2022-12-07T03:43:36;17.38;;;9.63;;
32611;SDS011;19030;49.478;8.986;2022-12-07T03:45:38;16.67;;;9.50;;
32611;SDS011;19030;49.478;8.986;2022-12-07T03:47:56;18.90;;;10.40;;
32611;SDS011;19030;49.478;8.986;2022-12-07T03:52:24;16.42;;;9.20;;
32611;SDS011;19030;49.478;8.986;2022-12-07T03:54:33;16.52;;;9.43;;
32611;SDS011;19030;49.478;8.986;2022-12-07T03:56:58;17.27;;;8.65;;
32611;SDS011;19030;49.478;8.986;2022-12-07T03:59:01;15.85;;;9.65;;
32611;SDS011;19030;49.478;8.986;2022-12-07T04:01:01;19.35;;;10.10;;
32611;SDS011;19030;49.478;8.986;2022-12-07T04:03:02;19.08;;;10.52;;
32611;SDS011;19030;49.478;8.986;2022-12-07T04:05:03;21.10;;;10.38;;
32611;SDS011;19030;49.478;8.986;2022-12-07T04:07:04;19.17;;;9.95;;
32611;SDS011;19030;49.478;8.986;2022-12-07T04:09:04;17.52;;;9.43;;
32611;SDS011;19030;49.478;8.986;2022-12-07T04:11:05;18.70;;;10.07;;
32611;SDS011;19030;49.478;8.986;2022-12-07T04:13:06;17.15;;;9.95;;
32611;SDS011;19030;49.478;8.986;2022-12-07T04:15:06;18.33;;;10.23;;
32611;SDS011;19030;49.478;8.986;2022-12-07T04:17:08;17.23;;;10.00;;
32611;SDS011;19030;49.478;8.986;2022-12-07T04:19:08;20.67;;;9.57;;
32611;SDS011;19030;49.478;8.986;2022-12-07T04:21:09;17.48;;;9.40;;
32611;SDS011;19030;49.478;8.986;2022-12-07T04:23:09;19.50;;;9.75;;
32611;SDS011;19030;49.478;8.986;2022-12-07T04:25:10;16.98;;;9.75;;
32611;SDS011;19030;49.478;8.986;2022-12-07T04:27:11;17.55;;;9.10;;
32611;SDS011;19030;49.478;8.986;2022-12-07T04:29:11;18.67;;;9.52;;
32611;SDS011;19030;49.478;8.986;2022-12-07T04:31:13;20.80;;;10.07;;
32611;SDS011;19030;49.478;8.986;2022-12-07T04:33:14;18.00;;;10.15;;
32611;SDS011;19030;49.478;8.986;2022-12-07T04:35:14;19.33;;;9.43;;
32611;SDS011;19030;49.478;8.986;2022-12-07T04:37:15;16.15;;;9.63;;
32611;SDS011;19030;49.478;8.986;2022-12-07T04:39:21;17.02;;;9.63;;
32611;SDS011;19030;49.478;8.986;2022-12-07T04:41:24;18.05;;;9.65;;
32611;SDS011;19030;49.478;8.986;2022-12-07T04:43:28;20.45;;;11.23;;
32611;SDS011;19030;49.478;8.986;2022-12-07T04:45:29;18.38;;;10.30;;
32611;SDS011;19030;49.478;8.986;2022-12-07T04:47:29;19.70;;;10.45;;
32611;SDS011;19030;49.478;8.986;2022-12-07T04:49:30;19.65;;;10.68;;
32611;SDS011;19030;49.478;8.986;2022-12-07T04:51:30;19.98;;;11.60;;
32611;SDS011;19030;49.478;8.986;2022-12-07T04:53:31;20.23;;;10.27;;
32611;SDS011;19030;49.478;8.986;2022-12-07T04:55:31;21.63;;;10.80;;
32611;SDS011;19030;49.478;8.986;2022-12-07T04:57:32;19.17;;;10.13;;
32611;SDS011;19030;49.478;8.986;2022-12-07T04:59:32;16.15;;;9.23;;
32611;SDS011;19030;49.478;8.986;2022-12-07T05:01:33;21.75;;;10.65;;
32611;SDS011;19030;49.478;8.986;2022-12-07T05:03:34;22.85;;;10.60;;
32611;SDS011;19030;49.478;8.986;2022-12-07T05:05:35;19.45;;;11.52;;
32611;SDS011;19030;49.478;8.986;2022-12-07T05:07:36;20.05;;;11.23;;
32611;SDS011;19030;49.478;8.986;2022-12-07T05:09:36;17.90;;;10.23;;
32611;SDS011;19030;49.478;8.986;2022-12-07T05:11:37;18.63;;;9.88;;
32611;SDS011;19030;49.478;8.986;2022-12-07T05:13:37;19.60;;;10.98;;
32611;SDS011;19030;49.478;8.986;2022-12-07T05:15:38;20.38;;;10.75;;
32611;SDS011;19030;49.478;8.986;2022-12-07T05:17:38;21.13;;;11.07;;
32611;SDS011;19030;49.478;8.986;2022-12-07T05:19:39;20.65;;;11.27;;
32611;SDS011;19030;49.478;8.986;2022-12-07T05:21:40;17.02;;;10.52;;
32611;SDS011;19030;49.478;8.986;2022-12-07T05:23:40;22.58;;;11.10;;
32611;SDS011;19030;49.478;8.986;2022-12-07T05:25:41;22.90;;;13.30;;
32611;SDS011;19030;49.478;8.986;2022-12-07T05:27:41;22.92;;;13.13;;
32611;SDS011;19030;49.478;8.986;2022-12-07T05:29:42;20.08;;;11.00;;
32611;SDS011;19030;49.478;8.986;2022-12-07T05:31:43;21.13;;;11.25;;
32611;SDS011;19030;49.478;8.986;2022-12-07T05:33:44;20.85;;;12.00;;
32611;SDS011;19030;49.478;8.986;2022-12-07T05:35:44;22.05;;;11.77;;
32611;SDS011;19030;49.478;8.986;2022-12-07T05:37:45;18.42;;;11.02;;
32611;SDS011;19030;49.478;8.986;2022-12-07T05:39:45;18.23;;;11.40;;
32611;SDS011;19030;49.478;8.986;2022-12-07T05:41:46;19.15;;;11.35;;
32611;SDS011;19030;49.478;8.986;2022-12-07T05:44:05;19.42;;;11.50;;
32611;SDS011;19030;49.478;8.986;2022-12-07T05:46:05;24.40;;;12.20;;
32611;SDS011;19030;49.478;8.986;2022-12-07T05:48:06;24.00;;;12.40;;
32611;SDS011;19030;49.478;8.986;2022-12-07T05:50:07;18.73;;;11.48;;
32611;SDS011;19030;49.478;8.986;2022-12-07T05:52:07;19.38;;;11.00;;
32611;SDS011;19030;49.478;8.986;2022-12-07T05:54:08;19.35;;;11.98;;
32611;SDS011;19030;49.478;8.986;2022-12-07T05:56:08;19.35;;;11.32;;
32611;SDS011;19030;49.478;8.986;2022-12-07T05:58:09;20.38;;;11.15;;
32611;SDS011;19030;49.478;8.986;2022-12-07T06:00:29;20.13;;;11.27;;
32611;SDS011;19030;49.478;8.986;2022-12-07T06:02:29;20.70;;;10.23;;
32611;SDS011;19030;49.478;8.986;2022-12-07T06:04:32;18.48;;;10.27;;
32611;SDS011;19030;49.478;8.986;2022-12-07T06:06:34;22.48;;;11.93;;
32611;SDS011;19030;49.478;8.986;2022-12-07T06:08:35;17.67;;;10.60;;
32611;SDS011;19030;49.478;8.986;2022-12-07T06:10:35;18.70;;;10.70;;
32611;SDS011;19030;49.478;8.986;2022-12-07T06:12:36;21.08;;;11.57;;
32611;SDS011;19030;49.478;8.986;2022-12-07T06:14:39;19.20;;;10.52;;
32611;SDS011;19030;49.478;8.986;2022-12-07T06:16:40;21.58;;;10.75;;
32611;SDS011;19030;49.478;8.986;2022-12-07T06:18:41;18.75;;;9.73;;
32611;SDS011;19030;49.478;8.986;2022-12-07T06:20:41;22.05;;;11.35;;
32611;SDS011;19030;49.478;8.986;2022-12-07T06:22:42;20.48;;;11.02;;
32611;SDS011;19030;49.478;8.986;2022-12-07T06:24:42;19.73;;;10.98;;
32611;SDS011;19030;49.478;8.986;2022-12-07T06:26:43;21.60;;;10.73;;
32611;SDS011;19030;49.478;8.986;2022-12-07T06:28:44;21.27;;;10.75;;
32611;SDS011;19030;49.478;8.986;2022-12-07T06:30:45;19.52;;;11.23;;
32611;SDS011;19030;49.478;8.986;2022-12-07T06:32:45;21.02;;;11.35;;
32611;SDS011;19030;49.478;8.986;2022-12-07T06:34:46;19.75;;;10.82;;
32611;SDS011;19030;49.478;8.986;2022-12-07T06:36:47;20.60;;;10.13;;
32611;SDS011;19030;49.478;8.986;2022-12-07T06:38:51;18.90;;;10.30;;
32611;SDS011;19030;49.478;8.986;2022-12-07T06:40:52;21.30;;;10.57;;
32611;SDS011;19030;49.478;8.986;2022-12-07T06:42:53;24.85;;;12.52;;
32611;SDS011;19030;49.478;8.986;2022-12-07T06:44:53;23.35;;;12.30;;
32611;SDS011;19030;49.478;8.986;2022-12-07T06:46:54;22.35;;;11.20;;
32611;SDS011;19030;49.478;8.986;2022-12-07T06:48:54;21.60;;;10.73;;
32611;SDS011;19030;49.478;8.986;2022-12-07T06:50:55;21.80;;;11.15;;
32611;SDS011;19030;49.478;8.986;2022-12-07T06:52:56;21.58;;;11.82;;
32611;SDS011;19030;49.478;8.986;2022-12-07T06:54:56;22.83;;;11.65;;
32611;SDS011;19030;49.478;8.986;2022-12-07T06:56:57;22.73;;;10.98;;
32611;SDS011;19030;49.478;8.986;2022-12-07T06:58:57;21.55;;;10.32;;
32611;SDS011;19030;49.478;8.986;2022-12-07T07:00:58;20.83;;;11.45;;
32611;SDS011;19030;49.478;8.986;2022-12-07T07:02:59;21.42;;;11.35;;
32611;SDS011;19030;49.478;8.986;2022-12-07T07:04:59;19.67;;;10.60;;
32611;SDS011;19030;49.478;8.986;2022-12-07T07:07:00;20.13;;;11.18;;
32611;SDS011;19030;49.478;8.986;2022-12-07T07:09:00;19.65;;;10.85;;
32611;SDS011;19030;49.478;8.986;2022-12-07T07:11:01;21.13;;;11.35;;
32611;SDS011;19030;49.478;8.986;2022-12-07T07:13:02;19.05;;;10.57;;
32611;SDS011;19030;49.478;8.986;2022-12-07T07:15:03;17.48;;;10.20;;
32611;SDS011;19030;49.478;8.986;2022-12-07T07:17:04;21.50;;;10.77;;
32611;SDS011;19030;49.478;8.986;2022-12-07T07:19:05;19.23;;;10.30;;
32611;SDS011;19030;49.478;8.986;2022-12-07T07:21:05;20.38;;;10.77;;
32611;SDS011;19030;49.478;8.986;2022-12-07T07:23:06;19.25;;;10.00;;
32611;SDS011;19030;49.478;8.986;2022-12-07T07:25:07;17.92;;;10.20;;
32611;SDS011;19030;49.478;8.986;2022-12-07T07:27:08;19.33;;;11.05;;
32611;SDS011;19030;49.478;8.986;2022-12-07T07:29:08;19.20;;;10.85;;
32611;SDS011;19030;49.478;8.986;2022-12-07T07:31:09;17.17;;;10.77;;
32611;SDS011;19030;49.478;8.986;2022-12-07T07:33:09;18.85;;;10.27;;
32611;SDS011;19030;49.478;8.986;2022-12-07T07:35:11;16.55;;;9.13;;
32611;SDS011;19030;49.478;8.986;2022-12-07T07:37:12;13.38;;;7.57;;
32611;SDS011;19030;49.478;8.986;2022-12-07T07:39:12;14.77;;;8.32;;
32611;SDS011;19030;49.478;8.986;2022-12-07T07:41:13;15.80;;;8.35;;
32611;SDS011;19030;49.478;8.986;2022-12-07T07:43:13;14.23;;;8.18;;
32611;SDS011;19030;49.478;8.986;2022-12-07T07:45:14;18.17;;;8.13;;
32611;SDS011;19030;49.478;8.986;2022-12-07T07:47:15;16.30;;;8.68;;
32611;SDS011;19030;49.478;8.986;2022-12-07T07:49:15;16.02;;;9.07;;
32611;SDS011;19030;49.478;8.986;2022-12-07T07:51:16;17.15;;;9.10;;
32611;SDS011;19030;49.478;8.986;2022-12-07T07:53:16;15.38;;;8.75;;
32611;SDS011;19030;49.478;8.986;2022-12-07T07:55:17;15.05;;;8.60;;
32611;SDS011;19030;49.478;8.986;2022-12-07T07:57:18;15.23;;;9.23;;
32611;SDS011;19030;49.478;8.986;2022-12-07T07:59:18;18.02;;;9.88;;
32611;SDS011;19030;49.478;8.986;2022-12-07T08:01:19;15.55;;;9.40;;
32611;SDS011;19030;49.478;8.986;2022-12-07T08:03:19;16.02;;;9.23;;
32611;SDS011;19030;49.478;8.986;2022-12-07T08:05:20;17.63;;;9.05;;
32611;SDS011;19030;49.478;8.986;2022-12-07T08:07:20;17.98;;;8.68;;
32611;SDS011;19030;49.478;8.986;2022-12-07T08:09:21;17.08;;;10.07;;
32611;SDS011;19030;49.478;8.986;2022-12-07T08:11:21;17.00;;;10.60;;
32611;SDS011;19030;49.478;8.986;2022-12-07T08:13:22;18.10;;;10.25;;
32611;SDS011;19030;49.478;8.986;2022-12-07T08:15:23;19.38;;;10.85;;
32611;SDS011;19030;49.478;8.986;2022-12-07T08:17:24;19.38;;;10.75;;
32611;SDS011;19030;49.478;8.986;2022-12-07T08:19:25;17.55;;;8.95;;
32611;SDS011;19030;49.478;8.986;2022-12-07T08:21:25;16.38;;;10.10;;
32611;SDS011;19030;49.478;8.986;2022-12-07T08:23:26;18.00;;;9.35;;
32611;SDS011;19030;49.478;8.986;2022-12-07T08:25:27;18.85;;;10.05;;
32611;SDS011;19030;49.478;8.986;2022-12-07T08:27:28;17.58;;;9.80;;
32611;SDS011;19030;49.478;8.986;2022-12-07T08:29:28;17.17;;;9.80;;
32611;SDS011;19030;49.478;8.986;2022-12-07T08:31:29;17.67;;;9.25;;
32611;SDS011;19030;49.478;8.986;2022-12-07T08:33:30;16.13;;;8.93;;
32611;SDS011;19030;49.478;8.986;2022-12-07T08:35:32;16.88;;;9.10;;
32611;SDS011;19030;49.478;8.986;2022-12-07T08:37:33;16.65;;;9.10;;
32611;SDS011;19030;49.478;8.986;2022-12-07T08:39:34;15.85;;;9.63;;
32611;SDS011;19030;49.478;8.986;2022-12-07T08:41:34;15.80;;;8.98;;
32611;SDS011;19030;49.478;8.986;2022-12-07T08:43:35;18.60;;;9.30;;
32611;SDS011;19030;49.478;8.986;2022-12-07T08:45:36;15.38;;;8.77;;
32611;SDS011;19030;49.478;8.986;2022-12-07T08:47:41;19.08;;;10.82;;
32611;SDS011;19030;49.478;8.986;2022-12-07T08:49:52;25.45;;;14.65;;
32611;SDS011;19030;49.478;8.986;2022-12-07T08:51:54;24.73;;;13.38;;
32611;SDS011;19030;49.478;8.986;2022-12-07T08:53:55;27.73;;;14.20;;
32611;SDS011;19030;49.478;8.986;2022-12-07T08:55:58;25.75;;;13.48;;
32611;SDS011;19030;49.478;8.986;2022-12-07T08:57:59;19.30;;;10.43;;
32611;SDS011;19030;49.478;8.986;2022-12-07T09:00:00;20.92;;;10.70;;
32611;SDS011;19030;49.478;8.986;2022-12-07T09:02:01;19.92;;;10.93;;
32611;SDS011;19030;49.478;8.986;2022-12-07T09:04:01;21.63;;;12.13;;
32611;SDS011;19030;49.478;8.986;2022-12-07T09:06:02;26.70;;;14.13;;
32611;SDS011;19030;49.478;8.986;2022-12-07T09:08:03;17.48;;;10.07;;
32611;SDS011;19030;49.478;8.986;2022-12-07T09:10:04;19.25;;;10.80;;
32611;SDS011;19030;49.478;8.986;2022-12-07T09:12:05;16.98;;;9.93;;
32611;SDS011;19030;49.478;8.986;2022-12-07T09:14:06;20.20;;;10.88;;
32611;SDS011;19030;49.478;8.986;2022-12-07T09:16:06;20.77;;;13.25;;
32611;SDS011;19030;49.478;8.986;2022-12-07T09:18:07;19.70;;;11.38;;
32611;SDS011;19030;49.478;8.986;2022-12-07T09:20:08;19.17;;;10.68;;
32611;SDS011;19030;49.478;8.986;2022-12-07T09:22:09;19.98;;;11.52;;
32611;SDS011;19030;49.478;8.986;2022-12-07T09:24:11;20.67;;;12.15;;
32611;SDS011;19030;49.478;8.986;2022-12-07T09:26:12;20.65;;;12.00;;
32611;SDS011;19030;49.478;8.986;2022-12-07T09:28:12;18.77;;;11.40;;
32611;SDS011;19030;49.478;8.986;2022-12-07T09:30:13;20.27;;;11.70;;
32611;SDS011;19030;49.478;8.986;2022-12-07T09:32:14;22.60;;;11.43;;
32611;SDS011;19030;49.478;8.986;2022-12-07T09:34:14;25.42;;;12.70;;
32611;SDS011;19030;49.478;8.986;2022-12-07T09:36:15;21.25;;;11.60;;
32611;SDS011;19030;49.478;8.986;2022-12-07T09:38:16;19.45;;;11.60;;
32611;SDS011;19030;49.478;8.986;2022-12-07T09:40:17;20.90;;;12.00;;
32611;SDS011;19030;49.478;8.986;2022-12-07T09:44:33;25.80;;;11.75;;
32611;SDS011;19030;49.478;8.986;2022-12-07T09:46:36;20.55;;;10.93;;
32611;SDS011;19030;49.478;8.986;2022-12-07T09:48:38;21.35;;;11.38;;
32611;SDS011;19030;49.478;8.986;2022-12-07T09:50:40;21.33;;;12.05;;
32611;SDS011;19030;49.478;8.986;2022-12-07T09:52:41;21.77;;;12.00;;
32611;SDS011;19030;49.478;8.986;2022-12-07T09:54:46;18.27;;;11.55;;
32611;SDS011;19030;49.478;8.986;2022-12-07T09:56:48;19.45;;;11.93;;
32611;SDS011;19030;49.478;8.986;2022-12-07T09:58:49;22.38;;;11.90;;
32611;SDS011;19030;49.478;8.986;2022-12-07T10:01:05;22.55;;;12.88;;
32611;SDS011;19030;49.478;8.986;2022-12-07T10:03:12;20.52;;;11.88;;
32611;SDS011;19030;49.478;8.986;2022-12-07T10:05:14;21.77;;;12.57;;
32611;SDS011;19030;49.478;8.986;2022-12-07T10:07:18;20.95;;;11.82;;
32611;SDS011;19030;49.478;8.986;2022-12-07T10:09:19;21.02;;;12.02;;
32611;SDS011;19030;49.478;8.986;2022-12-07T10:11:21;22.15;;;12.25;;
32611;SDS011;19030;49.478;8.986;2022-12-07T10:13:33;21.30;;;12.90;;
32611;SDS011;19030;49.478;8.986;2022-12-07T10:17:53;22.30;;;12.07;;
32611;SDS011;19030;49.478;8.986;2022-12-07T10:20:02;21.60;;;12.90;;
32611;SDS011;19030;49.478;8.986;2022-12-07T10:22:28;21.17;;;12.55;;
32611;SDS011;19030;49.478;8.986;2022-12-07T10:24:29;22.30;;;13.05;;
32611;SDS011;19030;49.478;8.986;2022-12-07T10:26:34;21.00;;;12.25;;
32611;SDS011;19030;49.478;8.986;2022-12-07T10:28:36;21.85;;;12.85;;
32611;SDS011;19030;49.478;8.986;2022-12-07T10:30:47;22.33;;;12.85;;
32611;SDS011;19030;49.478;8.986;2022-12-07T10:32:56;21.02;;;12.60;;
32611;SDS011;19030;49.478;8.986;2022-12-07T10:37:30;21.05;;;12.10;;
32611;SDS011;19030;49.478;8.986;2022-12-07T10:39:50;23.95;;;13.57;;
32611;SDS011;19030;49.478;8.986;2022-12-07T10:41:56;22.55;;;14.40;;
32611;SDS011;19030;49.478;8.986;2022-12-07T10:43:58;22.63;;;13.18;;
32611;SDS011;19030;49.478;8.986;2022-12-07T10:48:19;22.88;;;13.00;;
32611;SDS011;19030;49.478;8.986;2022-12-07T10:50:32;20.77;;;12.38;;
32611;SDS011;19030;49.478;8.986;2022-12-07T10:57:30;23.33;;;13.80;;
32611;SDS011;19030;49.478;8.986;2022-12-07T10:59:51;22.10;;;13.15;;
32611;SDS011;19030;49.478;8.986;2022-12-07T11:02:15;20.15;;;12.48;;
32611;SDS011;19030;49.478;8.986;2022-12-07T11:04:40;27.23;;;12.93;;
32611;SDS011;19030;49.478;8.986;2022-12-07T11:07:11;22.95;;;12.07;;
32611;SDS011;19030;49.478;8.986;2022-12-07T11:11:49;35.72;;;18.90;;
32611;SDS011;19030;49.478;8.986;2022-12-07T11:22:15;21.23;;;12.70;;
32611;SDS011;19030;49.478;8.986;2022-12-07T11:24:31;20.00;;;12.82;;
32611;SDS011;19030;49.478;8.986;2022-12-07T11:31:25;21.38;;;12.55;;
32611;SDS011;19030;49.478;8.986;2022-12-07T11:33:41;21.92;;;14.02;;
32611;SDS011;19030;49.478;8.986;2022-12-07T11:38:00;22.42;;;11.90;;
32611;SDS011;19030;49.478;8.986;2022-12-07T11:42:49;21.67;;;13.02;;
32611;SDS011;19030;49.478;8.986;2022-12-07T11:45:19;22.60;;;12.35;;
32611;SDS011;19030;49.478;8.986;2022-12-07T11:51:44;23.30;;;12.63;;
32611;SDS011;19030;49.478;8.986;2022-12-07T11:53:58;21.75;;;12.90;;
32611;SDS011;19030;49.478;8.986;2022-12-07T11:58:18;20.83;;;11.50;;
32611;SDS011;19030;49.478;8.986;2022-12-07T12:00:21;20.77;;;11.77;;
32611;SDS011;19030;49.478;8.986;2022-12-07T12:02:31;19.60;;;12.30;;
32611;SDS011;19030;49.478;8.986;2022-12-07T12:04:54;22.10;;;12.85;;
32611;SDS011;19030;49.478;8.986;2022-12-07T12:07:07;20.13;;;12.82;;
32611;SDS011;19030;49.478;8.986;2022-12-07T12:09:15;24.00;;;12.85;;
32611;SDS011;19030;49.478;8.986;2022-12-07T12:16:01;23.55;;;13.02;;
32611;SDS011;19030;49.478;8.986;2022-12-07T12:18:30;25.85;;;15.43;;
32611;SDS011;19030;49.478;8.986;2022-12-07T12:20:50;27.05;;;15.98;;
32611;SDS011;19030;49.478;8.986;2022-12-07T12:25:16;22.45;;;13.52;;
32611;SDS011;19030;49.478;8.986;2022-12-07T12:27:25;20.10;;;12.77;;
32611;SDS011;19030;49.478;8.986;2022-12-07T12:29:36;22.85;;;13.48;;
32611;SDS011;19030;49.478;8.986;2022-12-07T12:31:39;34.22;;;19.75;;
32611;SDS011;19030;49.478;8.986;2022-12-07T12:33:44;26.52;;;15.35;;
32611;SDS011;19030;49.478;8.986;2022-12-07T12:36:16;25.25;;;14.23;;
32611;SDS011;19030;49.478;8.986;2022-12-07T12:38:30;23.85;;;13.73;;
32611;SDS011;19030;49.478;8.986;2022-12-07T12:40:48;37.33;;;19.65;;
32611;SDS011;19030;49.478;8.986;2022-12-07T12:42:55;51.70;;;24.13;;
32611;SDS011;19030;49.478;8.986;2022-12-07T12:45:03;22.55;;;14.27;;
32611;SDS011;19030;49.478;8.986;2022-12-07T12:49:41;22.33;;;12.75;;
32611;SDS011;19030;49.478;8.986;2022-12-07T12:54:04;35.00;;;18.70;;
32611;SDS011;19030;49.478;8.986;2022-12-07T12:56:26;66.53;;;35.00;;
32611;SDS011;19030;49.478;8.986;2022-12-07T12:58:40;25.52;;;13.25;;
32611;SDS011;19030;49.478;8.986;2022-12-07T13:00:44;24.20;;;14.20;;
32611;SDS011;19030;49.478;8.986;2022-12-07T13:02:47;24.83;;;14.82;;
32611;SDS011;19030;49.478;8.986;2022-12-07T13:04:58;23.35;;;12.57;;
32611;SDS011;19030;49.478;8.986;2022-12-07T13:06:59;18.33;;;12.20;;
32611;SDS011;19030;49.478;8.986;2022-12-07T13:09:00;19.55;;;12.30;;
32611;SDS011;19030;49.478;8.986;2022-12-07T13:13:29;23.15;;;13.48;;
32611;SDS011;19030;49.478;8.986;2022-12-07T13:21:43;23.95;;;13.85;;
32611;SDS011;19030;49.478;8.986;2022-12-07T13:25:48;31.10;;;17.65;;
32611;SDS011;19030;49.478;8.986;2022-12-07T13:28:14;19.83;;;12.68;;
32611;SDS011;19030;49.478;8.986;2022-12-07T13:30:18;25.83;;;13.65;;
32611;SDS011;19030;49.478;8.986;2022-12-07T13:32:23;19.75;;;11.73;;
32611;SDS011;19030;49.478;8.986;2022-12-07T13:36:39;24.70;;;12.23;;
32611;SDS011;19030;49.478;8.986;2022-12-07T13:38:54;20.67;;;12.93;;
32611;SDS011;19030;49.478;8.986;2022-12-07T13:41:18;19.17;;;11.02;;
32611;SDS011;19030;49.478;8.986;2022-12-07T13:43:20;20.92;;;11.23;;